Time;durP1;ratioP1;P1;durP2;ratioP2;P2;SDS_P1;SDS_P2;PMS_P1;PMS_P2;Temp;Humidity;BMP_temperature;BMP_pressure;BME280_temperature;BME280_humidity;BME280_pressure;Samples;Min_cycle;Max_cycle;Signal;HPM_P1;HPM_P2
2021/09/15 00:02:11;;;;;;;3.55;1.90;;;26.30;52.00;;;;;;5047093;28;20095;-58
2021/09/15 00:04:36;;;;;;;2.55;1.90;;;26.30;52.00;;;;;;5040261;28;20826;-63
2021/09/15 00:07:02;;;;;;;2.05;1.70;;;26.30;52.00;;;;;;5045089;28;20032;-58
2021/09/15 00:09:28;;;;;;;2.20;1.73;;;26.30;52.00;;;;;;5040286;28;20112;-62
2021/09/15 00:11:54;;;;;;;2.60;1.90;;;26.30;52.50;;;;;;5043117;28;20469;-56
2021/09/15 00:14:21;;;;;;;2.88;2.10;;;26.30;52.00;;;;;;5045699;28;20025;-53
2021/09/15 00:16:46;;;;;;;2.22;1.73;;;26.20;51.90;;;;;;5034481;28;20035;-62
2021/09/15 00:19:12;;;;;;;2.78;2.13;;;26.20;52.00;;;;;;5036769;28;20030;-57
2021/09/15 00:21:38;;;;;;;2.40;1.80;;;26.20;52.00;;;;;;5042840;28;20060;-56
2021/09/15 00:24:03;;;;;;;3.03;2.03;;;26.20;52.00;;;;;;5034654;28;20095;-58
2021/09/15 00:26:29;;;;;;;2.17;1.70;;;26.20;52.00;;;;;;5031170;28;20104;-62
2021/09/15 00:28:54;;;;;;;2.25;1.60;;;26.20;52.00;;;;;;5035029;28;20021;-53
2021/09/15 00:31:20;;;;;;;2.45;2.10;;;26.20;52.00;;;;;;5049696;28;20041;-60
2021/09/15 00:33:46;;;;;;;2.15;1.80;;;26.20;52.00;;;;;;5034372;28;20037;-54
2021/09/15 00:36:12;;;;;;;2.60;2.00;;;26.20;52.00;;;;;;5035830;28;20106;-55
2021/09/15 00:38:37;;;;;;;2.55;1.90;;;26.20;52.00;;;;;;5038288;28;20032;-58
2021/09/15 00:41:03;;;;;;;2.40;1.88;;;26.20;52.00;;;;;;5043278;28;20044;-54
2021/09/15 00:43:29;;;;;;;2.58;1.77;;;26.20;52.00;;;;;;5038176;28;20511;-58
2021/09/15 00:45:56;;;;;;;2.65;1.95;;;26.20;52.00;;;;;;5031642;28;20025;-59
2021/09/15 00:48:22;;;;;;;2.88;2.00;;;26.20;52.00;;;;;;5036622;28;20504;-58
2021/09/15 00:50:48;;;;;;;2.17;1.70;;;26.20;52.00;;;;;;5032002;28;20056;-62
2021/09/15 00:53:13;;;;;;;2.60;1.80;;;26.20;52.00;;;;;;5035341;28;20038;-59
2021/09/15 00:55:39;;;;;;;2.40;1.90;;;26.20;52.00;;;;;;5033508;28;20029;-52
2021/09/15 00:58:06;;;;;;;2.22;1.77;;;26.20;52.00;;;;;;5039286;28;20499;-55
2021/09/15 01:00:31;;;;;;;2.20;1.70;;;26.20;52.00;;;;;;5044122;28;20045;-57
2021/09/15 01:02:57;;;;;;;2.45;1.80;;;26.20;52.00;;;;;;5048058;28;20033;-57
2021/09/15 01:05:23;;;;;;;1.95;1.60;;;26.20;52.00;;;;;;5045738;28;20017;-53
2021/09/15 01:07:49;;;;;;;2.03;1.60;;;26.20;52.00;;;;;;5039255;28;20071;-57
2021/09/15 01:10:15;;;;;;;2.60;1.90;;;26.20;52.00;;;;;;5047024;28;20652;-60
2021/09/15 01:12:42;;;;;;;2.13;1.60;;;26.20;52.00;;;;;;5045375;28;20048;-58
2021/09/15 01:15:08;;;;;;;2.17;1.73;;;26.10;52.00;;;;;;5046642;28;20104;-55
2021/09/15 01:17:33;;;;;;;2.35;1.75;;;26.10;52.00;;;;;;5040722;28;20037;-58
2021/09/15 01:20:01;;;;;;;2.22;1.80;;;26.10;52.00;;;;;;5039529;28;20032;-57
2021/09/15 01:22:28;;;;;;;2.03;1.52;;;26.10;52.00;;;;;;5041159;28;20026;-50
2021/09/15 01:24:54;;;;;;;2.42;1.80;;;26.10;52.00;;;;;;5033071;28;20492;-57
2021/09/15 01:27:20;;;;;;;2.35;1.73;;;26.10;52.00;;;;;;5039675;28;20151;-59
2021/09/15 01:29:45;;;;;;;2.42;1.77;;;26.10;52.00;;;;;;5041816;28;20055;-52
2021/09/15 01:32:13;;;;;;;2.53;2.05;;;26.10;52.00;;;;;;5051315;28;20048;-54
2021/09/15 01:34:41;;;;;;;2.55;1.77;;;26.10;52.00;;;;;;5046660;28;20044;-53
2021/09/15 01:37:09;;;;;;;2.20;1.60;;;26.10;52.10;;;;;;5047302;28;20667;-58
2021/09/15 01:39:35;;;;;;;2.20;1.77;;;26.10;52.00;;;;;;5037532;28;20049;-63
2021/09/15 01:42:02;;;;;;;2.45;1.80;;;26.10;52.00;;;;;;5038548;28;20425;-63
2021/09/15 01:44:35;;;;;;;2.10;1.60;;;26.10;52.10;;;;;;5032483;28;20026;-54
2021/09/15 01:47:05;;;;;;;2.22;1.73;;;26.10;52.00;;;;;;5037884;28;20092;-56
2021/09/15 01:49:32;;;;;;;2.08;1.70;;;26.10;52.00;;;;;;5040707;28;20051;-58
2021/09/15 01:51:59;;;;;;;2.13;1.77;;;26.10;52.60;;;;;;5043923;28;20354;-58
2021/09/15 01:54:25;;;;;;;2.30;1.83;;;26.10;52.10;;;;;;5043868;28;20033;-53
2021/09/15 01:56:52;;;;;;;2.45;1.75;;;26.10;52.10;;;;;;5035923;28;20079;-58
2021/09/15 01:59:17;;;;;;;1.70;1.40;;;26.10;52.10;;;;;;5038166;28;20100;-59
2021/09/15 02:01:43;;;;;;;2.47;1.90;;;26.10;52.10;;;;;;5044887;28;20552;-54
2021/09/15 02:04:08;;;;;;;2.00;1.60;;;26.00;52.00;;;;;;5033233;28;20033;-54
2021/09/15 02:06:35;;;;;;;2.42;1.70;;;26.10;52.10;;;;;;5043485;28;20033;-58
2021/09/15 02:09:00;;;;;;;1.98;1.60;;;26.00;52.00;;;;;;5033729;28;20104;-56
2021/09/15 02:11:27;;;;;;;2.60;1.75;;;26.00;52.00;;;;;;5039244;28;20096;-60
2021/09/15 02:13:53;;;;;;;2.60;2.00;;;26.00;52.00;;;;;;5044557;28;20037;-58
2021/09/15 02:16:20;;;;;;;2.03;1.63;;;26.00;52.00;;;;;;5037393;28;20041;-59
2021/09/15 02:18:45;;;;;;;2.20;1.63;;;26.00;52.00;;;;;;5016700;28;20087;-54
2021/09/15 02:21:11;;;;;;;2.30;1.80;;;26.00;52.10;;;;;;5037755;28;20026;-55
2021/09/15 02:23:37;;;;;;;2.08;1.65;;;26.10;52.10;;;;;;5036487;28;20530;-59
2021/09/15 02:26:03;;;;;;;2.42;1.70;;;26.00;52.00;;;;;;5046700;28;20119;-58
2021/09/15 02:28:28;;;;;;;2.70;1.90;;;26.00;52.00;;;;;;5039331;28;20028;-62
2021/09/15 02:30:54;;;;;;;2.35;1.70;;;26.00;52.00;;;;;;5047189;28;20041;-57
2021/09/15 02:33:20;;;;;;;2.35;1.90;;;26.00;52.00;;;;;;5046542;28;20532;-57
2021/09/15 02:35:45;;;;;;;2.30;1.80;;;26.00;52.10;;;;;;5046015;28;20426;-61
2021/09/15 02:38:11;;;;;;;2.30;1.70;;;26.00;52.10;;;;;;5043131;28;20036;-62
2021/09/15 02:40:37;;;;;;;2.10;1.70;;;26.00;52.10;;;;;;5043666;28;20083;-53
2021/09/15 02:43:03;;;;;;;2.28;1.80;;;26.00;52.10;;;;;;5044343;28;20100;-58
2021/09/15 02:45:28;;;;;;;2.30;1.70;;;26.00;52.10;;;;;;5046706;28;20044;-58
2021/09/15 02:47:54;;;;;;;2.08;1.77;;;26.00;52.10;;;;;;5044622;28;20025;-55
2021/09/15 02:50:19;;;;;;;2.40;2.05;;;26.00;52.10;;;;;;5039356;28;20048;-54
2021/09/15 02:52:45;;;;;;;2.45;2.00;;;26.00;52.10;;;;;;5030624;28;20034;-52
2021/09/15 02:55:11;;;;;;;2.13;1.67;;;26.00;52.10;;;;;;5040841;28;20033;-54
2021/09/15 02:57:36;;;;;;;2.10;1.67;;;25.90;52.10;;;;;;5041136;28;20491;-62
2021/09/15 03:00:04;;;;;;;2.42;1.80;;;26.00;52.10;;;;;;5041131;28;20025;-53
2021/09/15 03:02:30;;;;;;;2.10;1.73;;;25.90;52.10;;;;;;5056706;28;20109;-56
2021/09/15 03:04:55;;;;;;;2.33;1.65;;;25.90;52.10;;;;;;5042518;28;20168;-54
2021/09/15 03:07:21;;;;;;;2.30;1.70;;;25.90;52.10;;;;;;5039025;28;20115;-57
2021/09/15 03:09:47;;;;;;;2.15;1.70;;;26.00;52.20;;;;;;5040996;28;20336;-59
2021/09/15 03:12:12;;;;;;;2.22;1.73;;;25.90;52.10;;;;;;5041861;28;20037;-60
2021/09/15 03:14:38;;;;;;;2.33;1.83;;;25.90;52.10;;;;;;5042615;28;20037;-52
2021/09/15 03:17:03;;;;;;;2.30;1.60;;;25.90;52.10;;;;;;5036515;28;20048;-56
2021/09/15 03:19:29;;;;;;;2.13;1.70;;;25.90;52.10;;;;;;5041625;28;20106;-55
2021/09/15 03:21:55;;;;;;;1.90;1.60;;;25.90;52.10;;;;;;5033172;28;20025;-51
2021/09/15 03:24:20;;;;;;;1.98;1.65;;;25.90;52.10;;;;;;5042602;28;20519;-55
2021/09/15 03:26:46;;;;;;;2.05;1.67;;;25.90;52.10;;;;;;5039741;28;20113;-58
2021/09/15 03:29:11;;;;;;;2.63;1.85;;;25.90;52.10;;;;;;5039061;28;20055;-59
2021/09/15 03:31:37;;;;;;;2.30;1.80;;;25.90;52.10;;;;;;5039171;28;20032;-56
2021/09/15 03:34:03;;;;;;;2.00;1.67;;;25.90;52.20;;;;;;5034573;28;20061;-55
2021/09/15 03:36:28;;;;;;;2.40;1.90;;;25.90;52.20;;;;;;5037098;28;20033;-56
2021/09/15 03:38:54;;;;;;;2.20;1.77;;;25.90;52.20;;;;;;5034982;28;20116;-56
2021/09/15 03:41:20;;;;;;;2.78;1.90;;;25.90;52.20;;;;;;5041118;28;20037;-50
2021/09/15 03:43:45;;;;;;;3.03;1.80;;;25.90;52.20;;;;;;5039472;28;20025;-58
2021/09/15 03:46:11;;;;;;;2.10;1.70;;;25.90;52.20;;;;;;5030181;28;20144;-56
2021/09/15 03:48:37;;;;;;;2.17;1.70;;;25.90;52.20;;;;;;5042686;28;20071;-58
2021/09/15 03:51:03;;;;;;;1.85;1.60;;;25.80;52.10;;;;;;5051935;28;20080;-55
2021/09/15 03:53:28;;;;;;;2.15;1.77;;;25.90;52.20;;;;;;5044072;28;20025;-55
2021/09/15 03:55:54;;;;;;;2.40;1.60;;;25.90;52.20;;;;;;5043892;28;20036;-53
2021/09/15 03:58:19;;;;;;;2.50;1.83;;;25.80;52.10;;;;;;5036486;28;20053;-62
2021/09/15 04:00:45;;;;;;;2.65;1.80;;;25.80;52.10;;;;;;5043861;28;20037;-62
2021/09/15 04:03:11;;;;;;;1.90;1.60;;;25.80;52.20;;;;;;5046958;28;20441;-58
2021/09/15 04:05:36;;;;;;;2.30;1.90;;;25.80;52.20;;;;;;5043180;28;20025;-58
2021/09/15 04:08:02;;;;;;;2.20;1.75;;;25.80;52.20;;;;;;5048678;28;20028;-53
2021/09/15 04:10:28;;;;;;;2.42;1.80;;;25.80;52.20;;;;;;5042190;28;20041;-57
2021/09/15 04:12:54;;;;;;;2.28;1.67;;;25.80;52.20;;;;;;5037345;28;20048;-58
2021/09/15 04:15:19;;;;;;;2.47;1.70;;;25.80;52.20;;;;;;5033900;28;20053;-60
2021/09/15 04:17:45;;;;;;;2.20;1.60;;;25.80;52.20;;;;;;5040986;28;20136;-57
2021/09/15 04:20:12;;;;;;;2.75;1.90;;;25.80;52.20;;;;;;5036930;28;20110;-58
2021/09/15 04:22:39;;;;;;;2.10;1.58;;;25.80;52.20;;;;;;5036771;28;20043;-59
2021/09/15 04:33:18;;;;;;;2.20;1.70;;;25.80;52.20;;;;;;5039749;28;20085;-58
2021/09/15 04:35:43;;;;;;;2.22;1.70;;;25.80;52.20;;;;;;5033529;28;20029;-54
2021/09/15 04:38:09;;;;;;;1.70;1.58;;;25.80;52.20;;;;;;5040036;28;20041;-57
2021/09/15 04:40:35;;;;;;;2.53;1.88;;;25.70;52.10;;;;;;5032851;28;20036;-50
2021/09/15 04:43:00;;;;;;;2.47;1.95;;;25.80;52.20;;;;;;5037647;28;20039;-54
2021/09/15 04:45:26;;;;;;;2.30;1.90;;;25.70;52.10;;;;;;5040882;28;20033;-48
2021/09/15 04:47:52;;;;;;;2.30;1.90;;;25.70;52.10;;;;;;5039242;28;20032;-50
2021/09/15 04:50:17;;;;;;;2.33;1.80;;;25.70;52.10;;;;;;5044696;28;20409;-56
2021/09/15 04:52:43;;;;;;;2.15;1.60;;;25.70;52.10;;;;;;5040617;28;20033;-50
2021/09/15 04:55:09;;;;;;;2.53;1.60;;;25.70;52.20;;;;;;5041932;28;20458;-56
2021/09/15 04:57:35;;;;;;;2.00;1.70;;;25.70;52.20;;;;;;5051045;28;20543;-52
2021/09/15 05:00:01;;;;;;;1.95;1.60;;;25.70;52.20;;;;;;5045159;28;20120;-49
2021/09/15 05:02:26;;;;;;;2.20;1.75;;;25.70;52.20;;;;;;5041461;28;20128;-51
2021/09/15 05:04:52;;;;;;;2.25;1.70;;;25.70;52.20;;;;;;5045356;28;20068;-57
2021/09/15 05:07:18;;;;;;;2.20;1.80;;;25.70;52.20;;;;;;5032918;28;20106;-53
2021/09/15 05:09:43;;;;;;;2.70;1.80;;;25.70;52.20;;;;;;5042704;28;20438;-49
2021/09/15 05:12:09;;;;;;;2.03;1.67;;;25.70;52.20;;;;;;5038902;28;20202;-48
2021/09/15 05:14:35;;;;;;;2.42;1.90;;;25.70;52.20;;;;;;5036286;28;20025;-49
2021/09/15 05:17:01;;;;;;;2.10;1.75;;;25.70;52.20;;;;;;5041146;28;20567;-59
2021/09/15 05:19:26;;;;;;;2.15;1.70;;;25.70;52.20;;;;;;5049199;28;20033;-48
2021/09/15 05:21:52;;;;;;;2.50;1.70;;;25.70;52.20;;;;;;5037733;28;20116;-60
2021/09/15 05:24:17;;;;;;;2.15;1.77;;;25.70;52.20;;;;;;5038576;28;20041;-48
2021/09/15 05:26:43;;;;;;;2.17;1.77;;;25.70;52.20;;;;;;5042592;28;20025;-51
2021/09/15 05:29:09;;;;;;;2.17;1.73;;;25.70;52.30;;;;;;5037016;28;20025;-56
2021/09/15 05:31:34;;;;;;;2.00;1.77;;;25.70;52.30;;;;;;5042131;28;20044;-57
2021/09/15 05:34:00;;;;;;;2.13;1.70;;;25.70;52.30;;;;;;5042821;28;20040;-57
2021/09/15 05:36:26;;;;;;;2.63;1.70;;;25.70;52.20;;;;;;5040775;28;20040;-57
2021/09/15 05:38:51;;;;;;;2.30;1.73;;;25.70;52.20;;;;;;5041212;28;20032;-58
2021/09/15 05:41:17;;;;;;;2.40;1.75;;;25.80;52.20;;;;;;5048444;28;20041;-58
2021/09/15 05:43:43;;;;;;;2.63;2.25;;;25.80;52.00;;;;;;5042308;28;20029;-52
2021/09/15 05:46:08;;;;;;;2.42;1.83;;;25.80;52.40;;;;;;5046248;28;20036;-52
2021/09/15 05:48:34;;;;;;;2.53;2.10;;;25.90;51.90;;;;;;5044166;28;20461;-57
2021/09/15 05:51:00;;;;;;;3.17;2.28;;;25.90;51.80;;;;;;5055464;28;20442;-49
2021/09/15 05:53:26;;;;;;;2.63;1.98;;;25.90;51.80;;;;;;5041338;28;20127;-58
2021/09/15 05:55:51;;;;;;;3.10;2.40;;;25.90;51.70;;;;;;5046774;28;20032;-51
2021/09/15 05:58:18;;;;;;;2.67;2.20;;;25.90;51.70;;;;;;5032175;28;20331;-57
2021/09/15 06:00:44;;;;;;;2.60;2.30;;;26.00;51.60;;;;;;5045174;28;20155;-52
2021/09/15 06:03:09;;;;;;;2.85;2.30;;;26.00;51.60;;;;;;5035701;28;20117;-53
2021/09/15 06:05:35;;;;;;;3.25;2.38;;;26.00;51.50;;;;;;5041077;28;20140;-58
2021/09/15 06:08:01;;;;;;;3.22;2.92;;;26.00;51.40;;;;;;5033182;28;20025;-60
2021/09/15 06:10:26;;;;;;;3.92;2.50;;;26.00;51.40;;;;;;5036265;28;20025;-54
2021/09/15 06:12:52;;;;;;;3.15;2.45;;;26.10;51.40;;;;;;5034195;28;20036;-57
2021/09/15 06:15:18;;;;;;;3.35;2.80;;;26.10;51.40;;;;;;5036306;28;20037;-54
2021/09/15 06:17:43;;;;;;;3.40;2.83;;;26.10;51.40;;;;;;5043319;28;20060;-58
2021/09/15 06:20:09;;;;;;;3.38;3.00;;;26.10;51.30;;;;;;5048628;28;20068;-59
2021/09/15 06:22:35;;;;;;;3.50;3.05;;;26.20;51.30;;;;;;5040780;28;20158;-55
2021/09/15 06:25:01;;;;;;;3.20;2.70;;;26.20;51.30;;;;;;5028516;28;20088;-50
2021/09/15 06:27:26;;;;;;;3.75;2.97;;;26.20;51.20;;;;;;5028605;28;20025;-58
2021/09/15 06:29:52;;;;;;;3.30;2.90;;;26.20;51.20;;;;;;5034606;28;20082;-51
2021/09/15 06:32:20;;;;;;;3.20;2.88;;;26.20;51.20;;;;;;5041612;28;20044;-53
2021/09/15 06:34:46;;;;;;;3.75;3.03;;;26.20;51.10;;;;;;5045324;28;20507;-59
2021/09/15 06:37:14;;;;;;;3.42;2.95;;;26.20;51.10;;;;;;5027981;28;20133;-52
2021/09/15 06:39:40;;;;;;;3.20;2.90;;;26.20;51.10;;;;;;5042025;28;20603;-52
2021/09/15 06:42:06;;;;;;;3.75;3.00;;;26.20;51.10;;;;;;5031654;28;20037;-58
2021/09/15 06:44:31;;;;;;;3.70;2.80;;;26.30;51.20;;;;;;5048274;28;20496;-58
2021/09/15 06:46:57;;;;;;;3.97;3.20;;;26.30;51.20;;;;;;5044214;28;20041;-57
2021/09/15 06:49:22;;;;;;;3.42;2.80;;;26.30;51.20;;;;;;5048747;28;20449;-56
2021/09/15 06:51:48;;;;;;;3.00;2.70;;;26.30;51.20;;;;;;5045564;28;20078;-59
2021/09/15 06:54:13;;;;;;;3.78;2.90;;;26.30;51.20;;;;;;5035286;28;20051;-46
2021/09/15 06:56:39;;;;;;;3.22;2.80;;;26.30;51.40;;;;;;5037006;28;20029;-49
2021/09/15 06:59:05;;;;;;;3.55;3.13;;;26.30;51.40;;;;;;5036891;28;20381;-52
2021/09/15 07:01:30;;;;;;;3.65;3.00;;;26.40;51.20;;;;;;5029019;28;20148;-60
2021/09/15 07:03:56;;;;;;;3.60;3.00;;;26.40;51.20;;;;;;5029715;28;20434;-49
2021/09/15 07:06:22;;;;;;;3.65;3.10;;;26.40;51.10;;;;;;5040584;28;20123;-60
2021/09/15 07:08:54;;;;;;;3.13;2.83;;;26.40;51.10;;;;;;5042805;28;20048;-57
2021/09/15 07:11:21;;;;;;;3.28;2.90;;;26.40;51.00;;;;;;5041685;28;20028;-55
2021/09/15 07:13:47;;;;;;;3.42;2.70;;;26.50;51.10;;;;;;5032476;28;20393;-59
2021/09/15 07:16:12;;;;;;;3.75;3.00;;;26.40;51.00;;;;;;5034774;28;20048;-53
2021/09/15 07:18:38;;;;;;;3.65;2.85;;;26.50;51.00;;;;;;5047236;28;20388;-60
2021/09/15 07:21:04;;;;;;;3.50;2.60;;;26.50;51.10;;;;;;5058541;28;20029;-60
2021/09/15 07:23:29;;;;;;;4.03;2.80;;;26.50;51.10;;;;;;5044404;28;20033;-55
2021/09/15 07:25:55;;;;;;;3.00;2.70;;;26.50;51.00;;;;;;5038724;28;20032;-58
2021/09/15 07:28:21;;;;;;;3.15;2.80;;;26.50;51.00;;;;;;5027418;28;20034;-59
2021/09/15 07:30:47;;;;;;;3.40;2.97;;;26.50;51.40;;;;;;5038669;28;20166;-60
2021/09/15 07:33:14;;;;;;;3.42;2.70;;;26.60;50.90;;;;;;5032174;28;20438;-50
2021/09/15 07:35:40;;;;;;;2.80;2.50;;;26.50;51.10;;;;;;5035941;28;20728;-49
2021/09/15 07:38:06;;;;;;;3.00;2.58;;;26.50;51.00;;;;;;5027735;28;20036;-59
2021/09/15 07:40:31;;;;;;;3.00;2.40;;;26.60;51.10;;;;;;5029608;28;20028;-57
2021/09/15 07:42:57;;;;;;;3.10;2.60;;;26.60;51.10;;;;;;5040754;28;20053;-55
2021/09/15 07:45:23;;;;;;;2.90;2.53;;;26.60;51.00;;;;;;5039669;28;20026;-58
2021/09/15 07:47:49;;;;;;;3.60;2.85;;;26.60;51.00;;;;;;5036249;28;20484;-57
2021/09/15 07:50:15;;;;;;;3.10;2.63;;;26.60;50.90;;;;;;5046247;28;20044;-57
2021/09/15 07:52:40;;;;;;;3.25;2.85;;;26.60;50.80;;;;;;5034828;28;20021;-55
2021/09/15 07:55:06;;;;;;;4.28;2.80;;;26.70;50.90;;;;;;5036535;28;20128;-53
2021/09/15 07:57:33;;;;;;;3.13;2.75;;;26.70;50.90;;;;;;5033331;28;20341;-58
2021/09/15 07:59:58;;;;;;;3.25;2.75;;;26.70;50.80;;;;;;5047145;28;20029;-55
2021/09/15 08:02:24;;;;;;;3.30;2.60;;;26.70;50.80;;;;;;5030349;28;20036;-58
2021/09/15 08:04:50;;;;;;;3.00;2.63;;;26.80;50.90;;;;;;5032251;28;20033;-50
2021/09/15 08:07:21;;;;;;;3.45;2.60;;;26.70;50.90;;;;;;5028526;28;20025;-52
2021/09/15 08:09:47;;;;;;;3.17;2.70;;;26.70;51.10;;;;;;5052022;28;20463;-53
2021/09/15 08:12:12;;;;;;;2.80;2.28;;;26.70;51.00;;;;;;5046020;28;20033;-55
2021/09/15 08:14:38;;;;;;;3.10;2.60;;;26.70;51.10;;;;;;5030110;28;20602;-55
2021/09/15 08:17:04;;;;;;;2.97;2.55;;;26.70;51.10;;;;;;5028717;28;20057;-52
2021/09/15 08:19:29;;;;;;;3.13;2.60;;;26.80;51.10;;;;;;5034234;28;20034;-55
2021/09/15 08:21:55;;;;;;;3.25;2.75;;;26.80;51.20;;;;;;5028501;28;20029;-58
2021/09/15 08:24:20;;;;;;;4.00;2.83;;;26.80;51.00;;;;;;5028216;28;20080;-52
2021/09/15 08:26:46;;;;;;;2.95;2.63;;;26.80;50.90;;;;;;5035729;28;20028;-53
2021/09/15 08:29:12;;;;;;;3.90;3.20;;;26.80;51.50;;;;;;5036425;28;20044;-54
2021/09/15 08:31:38;;;;;;;4.13;3.72;;;26.80;51.50;;;;;;5041890;28;20461;-60
2021/09/15 08:34:03;;;;;;;4.07;3.67;;;26.80;52.40;;;;;;5033394;28;20047;-55
2021/09/15 08:36:29;;;;;;;5.22;4.05;;;26.80;51.90;;;;;;5030869;28;20101;-53
2021/09/15 08:38:56;;;;;;;4.97;4.40;;;26.80;52.10;;;;;;5038663;28;20381;-58
2021/09/15 08:41:21;;;;;;;4.22;3.70;;;26.80;52.00;;;;;;5038782;28;20163;-58
2021/09/15 08:43:47;;;;;;;4.47;4.07;;;26.80;52.10;;;;;;5040990;28;20128;-58
2021/09/15 08:46:17;;;;;;;4.57;4.13;;;26.80;52.20;;;;;;5042384;28;20178;-56
2021/09/15 08:48:45;;;;;;;5.25;4.55;;;26.80;52.20;;;;;;5039507;28;20017;-58
2021/09/15 08:51:13;;;;;;;4.47;3.90;;;26.80;52.70;;;;;;5031042;28;20025;-52
2021/09/15 08:53:40;;;;;;;5.25;3.53;;;26.70;52.30;;;;;;5043271;28;20037;-60
2021/09/15 08:56:06;;;;;;;4.22;3.35;;;26.70;51.80;;;;;;5045630;28;20033;-59
2021/09/15 08:58:32;;;;;;;4.22;3.80;;;26.70;51.60;;;;;;5041170;28;20056;-58
2021/09/15 09:01:25;;;;;;;5.13;4.30;;;26.70;51.70;;;;;;5043854;28;20037;-59
2021/09/15 09:03:53;;;;;;;6.38;4.90;;;26.60;52.30;;;;;;5041483;28;20051;-57
2021/09/15 09:06:21;;;;;;;5.75;4.35;;;26.60;52.70;;;;;;5046864;28;20033;-57
2021/09/15 09:08:53;;;;;;;4.88;4.28;;;26.60;52.90;;;;;;5041624;28;20517;-56
2021/09/15 09:11:21;;;;;;;4.90;4.40;;;26.60;52.80;;;;;;5038025;28;20024;-58
2021/09/15 09:13:52;;;;;;;5.95;4.80;;;26.60;52.80;;;;;;5033913;28;20499;-59
2021/09/15 09:16:20;;;;;;;4.72;4.25;;;26.60;52.80;;;;;;5032517;28;20041;-58
2021/09/15 09:19:03;;;;;;;7.00;4.85;;;26.60;52.80;;;;;;5026581;28;20485;-59
2021/09/15 09:21:31;;;;;;;4.65;4.00;;;26.60;53.50;;;;;;5041720;28;20163;-54
2021/09/15 09:23:58;;;;;;;4.93;4.45;;;26.60;53.30;;;;;;5045476;28;20025;-59
2021/09/15 09:26:46;;;;;;;4.60;4.10;;;26.60;53.80;;;;;;5032896;28;20472;-58
2021/09/15 09:29:17;;;;;;;5.22;4.60;;;26.60;53.70;;;;;;5037859;28;20060;-59
2021/09/15 09:32:15;;;;;;;5.32;4.47;;;26.50;54.00;;;;;;5043395;28;20052;-54
2021/09/15 09:34:43;;;;;;;5.00;4.28;;;26.50;54.70;;;;;;5022541;28;20061;-59
2021/09/15 09:37:18;;;;;;;5.10;4.40;;;26.50;55.10;;;;;;5037023;28;20569;-58
2021/09/15 09:39:49;;;;;;;5.53;4.30;;;26.40;55.20;;;;;;5037691;28;20033;-58
2021/09/15 09:42:23;;;;;;;5.45;4.38;;;26.40;54.80;;;;;;5033410;28;20032;-56
2021/09/15 09:44:49;;;;;;;5.10;4.60;;;26.50;54.40;;;;;;5031850;28;20433;-54
2021/09/15 09:47:19;;;;;;;6.20;4.55;;;26.50;55.80;;;;;;5030340;28;20101;-59
2021/09/15 09:50:00;;;;;;;7.88;4.72;;;26.40;55.60;;;;;;5039121;28;20036;-62
2021/09/15 09:52:26;;;;;;;5.68;4.95;;;26.50;56.00;;;;;;5048452;28;20076;-50
2021/09/15 09:55:00;;;;;;;5.32;4.70;;;26.40;55.80;;;;;;5050201;28;20075;-60
2021/09/15 09:57:28;;;;;;;5.93;4.60;;;26.50;55.70;;;;;;5034762;28;20081;-59
2021/09/15 09:59:55;;;;;;;5.93;5.00;;;26.50;55.30;;;;;;5043636;28;20108;-52
2021/09/15 10:02:21;;;;;;;6.88;4.65;;;26.50;55.90;;;;;;5050566;28;20688;-59
2021/09/15 10:04:47;;;;;;;5.75;4.70;;;26.50;56.60;;;;;;5046925;28;20128;-57
2021/09/15 10:07:14;;;;;;;7.05;5.03;;;26.40;56.90;;;;;;5043755;28;20381;-59
2021/09/15 10:09:43;;;;;;;7.07;5.07;;;26.30;57.40;;;;;;5038111;28;20107;-53
2021/09/15 10:12:09;;;;;;;6.32;5.20;;;26.30;56.90;;;;;;5044078;28;20035;-56
2021/09/15 10:14:36;;;;;;;5.35;4.65;;;26.30;56.20;;;;;;5039944;28;20025;-49
2021/09/15 10:17:07;;;;;;;6.28;5.20;;;26.30;57.10;;;;;;5031671;28;20469;-59
2021/09/15 10:19:38;;;;;;;6.05;4.88;;;26.30;56.90;;;;;;5043184;28;20033;-58
2021/09/15 10:22:05;;;;;;;5.45;4.60;;;26.30;56.60;;;;;;5037091;28;20108;-56
2021/09/15 10:24:49;;;;;;;7.22;5.25;;;26.30;56.80;;;;;;5039729;28;20095;-59
2021/09/15 10:27:17;;;;;;;5.53;4.95;;;26.30;56.80;;;;;;5034752;28;20040;-59
2021/09/15 10:29:43;;;;;;;19.55;4.88;;;26.30;56.60;;;;;;5040711;28;20063;-59
2021/09/15 10:32:11;;;;;;;6.18;4.97;;;26.40;56.70;;;;;;5038904;28;20041;-59
2021/09/15 10:34:40;;;;;;;5.22;4.50;;;26.30;56.80;;;;;;5036765;28;20025;-59
2021/09/15 10:37:12;;;;;;;8.18;5.10;;;26.30;56.90;;;;;;5038245;28;20036;-56
2021/09/15 10:39:54;;;;;;;5.53;4.70;;;26.30;56.70;;;;;;5039599;28;20424;-55
2021/09/15 10:45:25;;;;;;;5.78;4.95;;;26.40;56.80;;;;;;5041797;28;20033;-59
2021/09/15 10:47:58;;;;;;;6.00;4.75;;;26.40;56.60;;;;;;5031902;28;20026;-57
2021/09/15 10:50:27;;;;;;;5.10;4.50;;;26.30;56.80;;;;;;5038550;28;20033;-60
2021/09/15 10:53:12;;;;;;;5.80;4.70;;;26.30;56.90;;;;;;5038803;28;20025;-52
2021/09/15 10:55:40;;;;;;;6.00;4.97;;;26.40;57.20;;;;;;5047444;28;20109;-59
2021/09/15 10:58:11;;;;;;;4.82;4.32;;;26.40;57.00;;;;;;5034882;28;20021;-57
2021/09/15 11:01:03;;;;;;;5.50;4.50;;;26.40;57.50;;;;;;5044341;28;20497;-59
2021/09/15 11:03:33;;;;;;;5.43;4.80;;;26.40;55.90;;;;;;5042022;28;20062;-60
2021/09/15 11:06:08;;;;;;;6.43;4.57;;;26.40;55.80;;;;;;5046228;28;20422;-58
2021/09/15 11:08:42;;;;;;;5.20;4.35;;;26.40;56.30;;;;;;5035646;28;20028;-60
2021/09/15 11:11:21;;;;;;;5.82;4.60;;;26.40;57.50;;;;;;5032960;28;20385;-58
2021/09/15 11:14:05;;;;;;;;;;;26.50;56.50;;;;;;5039249;28;20099;-57
2021/09/15 11:16:38;;;;;;;5.57;4.30;;;26.50;56.70;;;;;;5036685;28;19913;-60
2021/09/15 11:19:09;;;;;;;5.28;4.45;;;26.50;56.50;;;;;;5037841;28;20555;-58
2021/09/15 11:21:46;;;;;;;5.65;4.43;;;26.50;56.40;;;;;;5042092;28;20132;-55
2021/09/15 11:24:17;;;;;;;5.88;4.05;;;26.50;57.10;;;;;;5042625;28;20032;-59
2021/09/15 11:26:49;;;;;;;5.95;4.35;;;26.50;57.70;;;;;;5035331;28;20421;-59
2021/09/15 11:29:38;;;;;;;4.88;4.10;;;26.50;57.70;;;;;;5027232;28;20398;-54
2021/09/15 11:32:06;;;;;;;5.13;4.40;;;26.50;57.10;;;;;;5036943;28;20025;-59
2021/09/15 11:34:40;;;;;;;4.78;3.97;;;26.50;56.40;;;;;;5034917;28;20029;-57
2021/09/15 11:37:26;;;;;;;4.90;4.03;;;26.50;55.70;;;;;;5041623;28;20434;-59
2021/09/15 11:39:52;;;;;;;4.30;3.83;;;26.60;55.60;;;;;;5035341;28;20391;-56
2021/09/15 11:42:22;;;;;;;5.57;4.32;;;26.50;55.50;;;;;;5037021;28;20029;-54
2021/09/15 11:44:47;;;;;;;4.63;4.07;;;26.60;55.50;;;;;;5044560;28;20029;-59
2021/09/15 11:47:21;;;;;;;4.63;3.58;;;26.60;55.50;;;;;;5046205;28;20028;-50
2021/09/15 11:49:46;;;;;;;5.20;3.40;;;26.60;57.00;;;;;;5050561;28;20028;-57
2021/09/15 11:52:12;;;;;;;3.60;2.92;;;26.50;56.70;;;;;;5051855;28;20104;-56
2021/09/15 11:54:38;;;;;;;4.63;3.00;;;26.50;56.70;;;;;;5047486;28;20072;-58
2021/09/15 11:57:07;;;;;;;4.05;2.88;;;26.60;56.20;;;;;;5046389;28;20028;-59
2021/09/15 11:59:34;;;;;;;5.10;2.88;;;26.50;56.30;;;;;;5047838;28;20082;-59
2021/09/15 12:02:02;;;;;;;5.72;2.63;;;26.50;55.90;;;;;;5042597;28;20032;-57
2021/09/15 12:04:29;;;;;;;4.45;2.20;;;26.50;55.40;;;;;;5044837;28;20061;-51
2021/09/15 12:06:56;;;;;;;3.67;2.30;;;26.40;55.20;;;;;;5042010;28;20064;-58
2021/09/15 12:09:23;;;;;;;3.83;2.33;;;26.40;55.50;;;;;;5052354;28;20036;-54
2021/09/15 12:11:49;;;;;;;4.85;2.28;;;26.40;55.00;;;;;;5053003;28;20013;-55
2021/09/15 12:14:17;;;;;;;5.32;2.45;;;26.40;54.80;;;;;;5048475;28;20040;-52
2021/09/15 12:16:46;;;;;;;3.92;2.22;;;26.40;54.70;;;;;;5038846;28;20444;-59
2021/09/15 12:19:19;;;;;;;5.63;2.00;;;26.30;54.80;;;;;;5041637;28;20037;-59
2021/09/15 12:21:48;;;;;;;2.60;1.70;;;26.30;54.60;;;;;;5039869;28;20047;-53
2021/09/15 12:24:16;;;;;;;4.35;2.28;;;26.30;54.70;;;;;;5029368;28;20049;-53
2021/09/15 12:26:42;;;;;;;3.45;2.10;;;26.30;54.60;;;;;;5044714;28;20033;-60
2021/09/15 12:29:11;;;;;;;3.03;1.70;;;26.30;54.60;;;;;;5042206;28;20029;-53
2021/09/15 12:32:05;;;;;;;3.35;1.83;;;26.40;54.80;;;;;;5051273;28;20034;-59
2021/09/15 12:34:34;;;;;;;3.38;2.08;;;26.30;54.80;;;;;;5056894;28;20045;-60
2021/09/15 12:37:14;;;;;;;3.22;2.05;;;26.30;54.70;;;;;;5043812;28;20044;-49
2021/09/15 12:39:49;;;;;;;4.43;2.05;;;26.40;54.60;;;;;;5071131;28;20032;-59
2021/09/15 12:42:21;;;;;;;3.10;2.03;;;26.40;54.40;;;;;;5048945;28;20334;-55
2021/09/15 12:44:56;;;;;;;2.95;1.90;;;26.50;54.50;;;;;;5056358;28;20086;-55
2021/09/15 12:47:32;;;;;;;4.53;2.13;;;26.50;54.30;;;;;;5044489;28;20036;-57
2021/09/15 12:50:03;;;;;;;3.22;1.67;;;26.50;54.30;;;;;;5051554;28;20021;-53
2021/09/15 12:52:29;;;;;;;3.47;2.22;;;26.60;54.10;;;;;;5039381;28;20024;-59
2021/09/15 12:54:57;;;;;;;3.35;2.05;;;26.60;54.00;;;;;;5046762;28;20037;-61
2021/09/15 12:57:33;;;;;;;3.05;2.00;;;26.60;53.90;;;;;;5036345;28;20029;-55
2021/09/15 13:00:21;;;;;;;3.42;1.95;;;26.70;53.90;;;;;;5051296;28;20028;-60
2021/09/15 13:02:55;;;;;;;3.30;2.10;;;26.70;53.90;;;;;;5044627;28;20095;-50